sensor_id;sensor_type;location;lat;lon;timestamp;temperature;humidity
78696;SHT31;68030;51.980;5.646;2023-08-08T00:00:33;18.1;65.5
78696;SHT31;68030;51.980;5.646;2023-08-08T00:03:02;18.1;65.5
78696;SHT31;68030;51.980;5.646;2023-08-08T00:05:31;18.1;65.8
78696;SHT31;68030;51.980;5.646;2023-08-08T00:08:01;18.1;65.8
78696;SHT31;68030;51.980;5.646;2023-08-08T00:10:29;18.1;65.8
78696;SHT31;68030;51.980;5.646;2023-08-08T00:12:58;18.1;65.8
78696;SHT31;68030;51.980;5.646;2023-08-08T00:15:27;18.1;65.9
78696;SHT31;68030;51.980;5.646;2023-08-08T00:17:55;18.1;65.9
78696;SHT31;68030;51.980;5.646;2023-08-08T00:20:24;18.2;65.9
78696;SHT31;68030;51.980;5.646;2023-08-08T00:22:54;18.2;65.8
78696;SHT31;68030;51.980;5.646;2023-08-08T00:25:22;18.2;66.0
78696;SHT31;68030;51.980;5.646;2023-08-08T00:27:53;18.2;65.8
78696;SHT31;68030;51.980;5.646;2023-08-08T00:30:22;18.2;66.0
78696;SHT31;68030;51.980;5.646;2023-08-08T00:32:50;18.2;65.9
78696;SHT31;68030;51.980;5.646;2023-08-08T00:35:19;18.2;65.8
78696;SHT31;68030;51.980;5.646;2023-08-08T00:37:48;18.2;65.8
78696;SHT31;68030;51.980;5.646;2023-08-08T00:40:17;18.3;65.9
78696;SHT31;68030;51.980;5.646;2023-08-08T00:42:45;18.3;65.9
78696;SHT31;68030;51.980;5.646;2023-08-08T00:45:16;18.3;66.0
78696;SHT31;68030;51.980;5.646;2023-08-08T00:47:44;18.3;66.1
78696;SHT31;68030;51.980;5.646;2023-08-08T00:50:16;18.3;66.1
78696;SHT31;68030;51.980;5.646;2023-08-08T00:52:45;18.3;66.2
78696;SHT31;68030;51.980;5.646;2023-08-08T00:55:15;18.3;66.3
78696;SHT31;68030;51.980;5.646;2023-08-08T00:57:44;18.3;66.4
78696;SHT31;68030;51.980;5.646;2023-08-08T01:00:14;18.3;66.6
78696;SHT31;68030;51.980;5.646;2023-08-08T01:02:45;18.3;67.1
78696;SHT31;68030;51.980;5.646;2023-08-08T01:05:14;18.3;67.2
78696;SHT31;68030;51.980;5.646;2023-08-08T01:07:50;18.3;67.3
78696;SHT31;68030;51.980;5.646;2023-08-08T01:10:25;18.3;67.4
78696;SHT31;68030;51.980;5.646;2023-08-08T01:13:00;18.3;67.5
78696;SHT31;68030;51.980;5.646;2023-08-08T01:15:34;18.2;67.2
78696;SHT31;68030;51.980;5.646;2023-08-08T01:18:05;18.2;67.3
78696;SHT31;68030;51.980;5.646;2023-08-08T01:20:35;18.2;67.8
78696;SHT31;68030;51.980;5.646;2023-08-08T01:23:10;18.2;67.6
78696;SHT31;68030;51.980;5.646;2023-08-08T01:25:41;18.2;67.6
78696;SHT31;68030;51.980;5.646;2023-08-08T01:28:10;18.2;67.3
78696;SHT31;68030;51.980;5.646;2023-08-08T01:30:39;18.2;67.5
78696;SHT31;68030;51.980;5.646;2023-08-08T01:33:10;18.2;67.4
78696;SHT31;68030;51.980;5.646;2023-08-08T01:35:45;18.2;67.6
78696;SHT31;68030;51.980;5.646;2023-08-08T01:38:28;18.2;67.6
78696;SHT31;68030;51.980;5.646;2023-08-08T01:40:56;18.2;67.7
78696;SHT31;68030;51.980;5.646;2023-08-08T01:43:26;18.2;67.7
78696;SHT31;68030;51.980;5.646;2023-08-08T01:45:59;18.2;67.6
78696;SHT31;68030;51.980;5.646;2023-08-08T01:48:29;18.2;67.7
78696;SHT31;68030;51.980;5.646;2023-08-08T01:50:58;18.2;67.7
78696;SHT31;68030;51.980;5.646;2023-08-08T01:53:27;18.2;67.6
78696;SHT31;68030;51.980;5.646;2023-08-08T01:55:56;18.2;67.7
78696;SHT31;68030;51.980;5.646;2023-08-08T01:58:24;18.2;67.5
78696;SHT31;68030;51.980;5.646;2023-08-08T02:00:52;18.2;67.7
78696;SHT31;68030;51.980;5.646;2023-08-08T02:03:23;18.2;67.6
78696;SHT31;68030;51.980;5.646;2023-08-08T02:05:51;18.2;67.7
78696;SHT31;68030;51.980;5.646;2023-08-08T02:08:20;18.2;67.5
78696;SHT31;68030;51.980;5.646;2023-08-08T02:10:48;18.2;67.5
78696;SHT31;68030;51.980;5.646;2023-08-08T02:13:17;18.2;67.4
78696;SHT31;68030;51.980;5.646;2023-08-08T02:15:46;18.2;67.3
78696;SHT31;68030;51.980;5.646;2023-08-08T02:18:14;18.1;67.4
78696;SHT31;68030;51.980;5.646;2023-08-08T02:20:42;18.1;67.4
78696;SHT31;68030;51.980;5.646;2023-08-08T02:23:11;18.1;67.1
78696;SHT31;68030;51.980;5.646;2023-08-08T02:25:39;18.1;67.2
78696;SHT31;68030;51.980;5.646;2023-08-08T02:28:10;18.1;67.2
78696;SHT31;68030;51.980;5.646;2023-08-08T02:30:39;18.0;67.1
78696;SHT31;68030;51.980;5.646;2023-08-08T02:33:09;18.0;66.9
78696;SHT31;68030;51.980;5.646;2023-08-08T02:35:38;18.0;67.0
78696;SHT31;68030;51.980;5.646;2023-08-08T02:38:07;18.0;66.7
78696;SHT31;68030;51.980;5.646;2023-08-08T02:40:35;18.0;66.8
78696;SHT31;68030;51.980;5.646;2023-08-08T02:43:05;17.9;66.8
78696;SHT31;68030;51.980;5.646;2023-08-08T02:45:35;17.9;67.2
78696;SHT31;68030;51.980;5.646;2023-08-08T02:48:05;17.9;67.4
78696;SHT31;68030;51.980;5.646;2023-08-08T02:50:34;17.8;67.7
78696;SHT31;68030;51.980;5.646;2023-08-08T02:53:02;17.8;68.0
78696;SHT31;68030;51.980;5.646;2023-08-08T02:55:31;17.8;68.2
78696;SHT31;68030;51.980;5.646;2023-08-08T02:58:00;17.8;68.3
78696;SHT31;68030;51.980;5.646;2023-08-08T03:00:28;17.8;68.5
78696;SHT31;68030;51.980;5.646;2023-08-08T03:02:56;17.7;68.9
78696;SHT31;68030;51.980;5.646;2023-08-08T03:05:25;17.7;69.5
78696;SHT31;68030;51.980;5.646;2023-08-08T03:07:54;17.7;69.8
78696;SHT31;68030;51.980;5.646;2023-08-08T03:10:23;17.6;70.2
78696;SHT31;68030;51.980;5.646;2023-08-08T03:12:51;17.6;70.6
78696;SHT31;68030;51.980;5.646;2023-08-08T03:15:20;17.6;70.8
78696;SHT31;68030;51.980;5.646;2023-08-08T03:17:50;17.6;70.9
78696;SHT31;68030;51.980;5.646;2023-08-08T03:20:19;17.6;71.0
78696;SHT31;68030;51.980;5.646;2023-08-08T03:22:48;17.6;71.1
78696;SHT31;68030;51.980;5.646;2023-08-08T03:25:17;17.6;71.1
78696;SHT31;68030;51.980;5.646;2023-08-08T03:27:45;17.6;71.0
78696;SHT31;68030;51.980;5.646;2023-08-08T03:30:15;17.6;71.0
78696;SHT31;68030;51.980;5.646;2023-08-08T03:32:44;17.6;71.0
78696;SHT31;68030;51.980;5.646;2023-08-08T03:35:12;17.6;70.9
78696;SHT31;68030;51.980;5.646;2023-08-08T03:37:41;17.6;70.9
78696;SHT31;68030;51.980;5.646;2023-08-08T03:40:11;17.6;70.8
78696;SHT31;68030;51.980;5.646;2023-08-08T03:42:41;17.6;70.9
78696;SHT31;68030;51.980;5.646;2023-08-08T03:45:11;17.6;70.8
78696;SHT31;68030;51.980;5.646;2023-08-08T03:47:40;17.6;70.7
78696;SHT31;68030;51.980;5.646;2023-08-08T03:50:12;17.5;70.7
78696;SHT31;68030;51.980;5.646;2023-08-08T03:52:42;17.5;70.6
78696;SHT31;68030;51.980;5.646;2023-08-08T03:55:11;17.5;70.6
78696;SHT31;68030;51.980;5.646;2023-08-08T03:57:40;17.5;70.7
78696;SHT31;68030;51.980;5.646;2023-08-08T04:00:12;17.5;70.8
78696;SHT31;68030;51.980;5.646;2023-08-08T04:02:41;17.5;70.9
78696;SHT31;68030;51.980;5.646;2023-08-08T04:05:09;17.5;71.1
78696;SHT31;68030;51.980;5.646;2023-08-08T04:07:38;17.4;71.2
78696;SHT31;68030;51.980;5.646;2023-08-08T04:10:07;17.4;71.4
78696;SHT31;68030;51.980;5.646;2023-08-08T04:12:36;17.4;71.5
78696;SHT31;68030;51.980;5.646;2023-08-08T04:15:06;17.4;71.5
78696;SHT31;68030;51.980;5.646;2023-08-08T04:17:36;17.4;71.5
78696;SHT31;68030;51.980;5.646;2023-08-08T04:20:05;17.4;71.5
78696;SHT31;68030;51.980;5.646;2023-08-08T04:22:36;17.4;71.5
78696;SHT31;68030;51.980;5.646;2023-08-08T04:25:06;17.4;71.6
78696;SHT31;68030;51.980;5.646;2023-08-08T04:27:35;17.4;71.7
78696;SHT31;68030;51.980;5.646;2023-08-08T04:30:03;17.4;71.8
78696;SHT31;68030;51.980;5.646;2023-08-08T04:32:34;17.4;71.9
78696;SHT31;68030;51.980;5.646;2023-08-08T04:35:03;17.4;72.0
78696;SHT31;68030;51.980;5.646;2023-08-08T04:37:32;17.4;72.0
78696;SHT31;68030;51.980;5.646;2023-08-08T04:40:00;17.4;72.1
78696;SHT31;68030;51.980;5.646;2023-08-08T04:42:30;17.4;72.1
78696;SHT31;68030;51.980;5.646;2023-08-08T04:44:58;17.5;72.2
78696;SHT31;68030;51.980;5.646;2023-08-08T04:47:27;17.5;72.2
78696;SHT31;68030;51.980;5.646;2023-08-08T04:49:55;17.5;72.2
78696;SHT31;68030;51.980;5.646;2023-08-08T04:52:24;17.5;72.1
78696;SHT31;68030;51.980;5.646;2023-08-08T04:54:52;17.5;72.0
78696;SHT31;68030;51.980;5.646;2023-08-08T04:57:21;17.5;71.9
78696;SHT31;68030;51.980;5.646;2023-08-08T04:59:49;17.5;71.8
78696;SHT31;68030;51.980;5.646;2023-08-08T05:02:19;17.5;71.6
78696;SHT31;68030;51.980;5.646;2023-08-08T05:04:47;17.5;71.5
78696;SHT31;68030;51.980;5.646;2023-08-08T05:07:16;17.5;71.3
78696;SHT31;68030;51.980;5.646;2023-08-08T05:09:44;17.5;71.3
78696;SHT31;68030;51.980;5.646;2023-08-08T05:12:15;17.6;71.2
78696;SHT31;68030;51.980;5.646;2023-08-08T05:14:43;17.6;71.2
78696;SHT31;68030;51.980;5.646;2023-08-08T05:17:12;17.6;71.2
78696;SHT31;68030;51.980;5.646;2023-08-08T05:19:40;17.6;71.3
78696;SHT31;68030;51.980;5.646;2023-08-08T05:22:09;17.7;71.2
78696;SHT31;68030;51.980;5.646;2023-08-08T05:24:38;17.7;71.1
78696;SHT31;68030;51.980;5.646;2023-08-08T05:27:08;17.7;70.9
78696;SHT31;68030;51.980;5.646;2023-08-08T05:29:38;17.8;70.6
78696;SHT31;68030;51.980;5.646;2023-08-08T05:32:08;17.8;70.8
78696;SHT31;68030;51.980;5.646;2023-08-08T05:34:37;17.8;70.3
78696;SHT31;68030;51.980;5.646;2023-08-08T05:37:06;17.9;70.3
78696;SHT31;68030;51.980;5.646;2023-08-08T05:39:34;17.9;70.0
78696;SHT31;68030;51.980;5.646;2023-08-08T05:42:03;17.9;70.1
78696;SHT31;68030;51.980;5.646;2023-08-08T05:44:32;17.9;69.9
78696;SHT31;68030;51.980;5.646;2023-08-08T05:47:03;18.0;70.2
78696;SHT31;68030;51.980;5.646;2023-08-08T05:49:32;18.0;69.6
78696;SHT31;68030;51.980;5.646;2023-08-08T05:52:01;18.1;69.2
78696;SHT31;68030;51.980;5.646;2023-08-08T05:54:30;18.1;69.0
78696;SHT31;68030;51.980;5.646;2023-08-08T05:56:59;18.1;68.8
78696;SHT31;68030;51.980;5.646;2023-08-08T05:59:27;18.2;67.9
78696;SHT31;68030;51.980;5.646;2023-08-08T06:01:56;18.2;67.4
78696;SHT31;68030;51.980;5.646;2023-08-08T06:04:25;18.3;67.0
78696;SHT31;68030;51.980;5.646;2023-08-08T06:06:54;18.3;66.8
78696;SHT31;68030;51.980;5.646;2023-08-08T06:09:22;18.4;66.7
78696;SHT31;68030;51.980;5.646;2023-08-08T06:11:51;18.4;65.8
78696;SHT31;68030;51.980;5.646;2023-08-08T06:14:20;18.5;65.6
78696;SHT31;68030;51.980;5.646;2023-08-08T06:16:49;18.5;65.3
78696;SHT31;68030;51.980;5.646;2023-08-08T06:19:17;18.6;64.9
78696;SHT31;68030;51.980;5.646;2023-08-08T06:21:46;18.7;64.7
78696;SHT31;68030;51.980;5.646;2023-08-08T06:24:15;18.8;64.0
78696;SHT31;68030;51.980;5.646;2023-08-08T06:26:44;18.8;63.9
78696;SHT31;68030;51.980;5.646;2023-08-08T06:29:12;18.9;63.2
78696;SHT31;68030;51.980;5.646;2023-08-08T06:31:41;18.9;62.6
78696;SHT31;68030;51.980;5.646;2023-08-08T06:34:10;19.0;62.6
78696;SHT31;68030;51.980;5.646;2023-08-08T06:36:40;19.1;62.3
78696;SHT31;68030;51.980;5.646;2023-08-08T06:39:11;19.1;61.5
78696;SHT31;68030;51.980;5.646;2023-08-08T06:41:39;19.2;60.8
78696;SHT31;68030;51.980;5.646;2023-08-08T06:44:08;19.2;60.7
78696;SHT31;68030;51.980;5.646;2023-08-08T06:46:37;19.3;60.6
78696;SHT31;68030;51.980;5.646;2023-08-08T06:49:06;19.3;60.7
78696;SHT31;68030;51.980;5.646;2023-08-08T06:51:35;19.4;59.8
78696;SHT31;68030;51.980;5.646;2023-08-08T06:54:04;19.4;59.4
78696;SHT31;68030;51.980;5.646;2023-08-08T06:56:34;19.5;59.1
78696;SHT31;68030;51.980;5.646;2023-08-08T06:59:02;19.5;59.1
78696;SHT31;68030;51.980;5.646;2023-08-08T07:01:31;19.6;58.8
78696;SHT31;68030;51.980;5.646;2023-08-08T07:04:00;19.6;58.8
78696;SHT31;68030;51.980;5.646;2023-08-08T07:06:28;19.6;58.2
78696;SHT31;68030;51.980;5.646;2023-08-08T07:08:57;19.7;57.9
78696;SHT31;68030;51.980;5.646;2023-08-08T07:11:25;19.7;58.5
78696;SHT31;68030;51.980;5.646;2023-08-08T07:13:54;19.8;57.0
78696;SHT31;68030;51.980;5.646;2023-08-08T07:16:23;19.8;56.5
78696;SHT31;68030;51.980;5.646;2023-08-08T07:18:51;19.9;56.7
78696;SHT31;68030;51.980;5.646;2023-08-08T07:21:20;20.0;55.7
78696;SHT31;68030;51.980;5.646;2023-08-08T07:23:48;20.0;54.6
78696;SHT31;68030;51.980;5.646;2023-08-08T07:26:17;20.0;54.7
78696;SHT31;68030;51.980;5.646;2023-08-08T07:28:46;20.1;54.5
78696;SHT31;68030;51.980;5.646;2023-08-08T07:31:14;20.1;53.3
78696;SHT31;68030;51.980;5.646;2023-08-08T07:33:43;20.2;53.4
78696;SHT31;68030;51.980;5.646;2023-08-08T07:36:11;20.2;52.7
78696;SHT31;68030;51.980;5.646;2023-08-08T07:38:40;20.2;52.2
78696;SHT31;68030;51.980;5.646;2023-08-08T07:41:09;20.3;51.9
78696;SHT31;68030;51.980;5.646;2023-08-08T07:43:38;20.3;52.6
78696;SHT31;68030;51.980;5.646;2023-08-08T07:46:06;20.3;52.6
78696;SHT31;68030;51.980;5.646;2023-08-08T07:48:35;20.3;52.7
78696;SHT31;68030;51.980;5.646;2023-08-08T07:51:04;20.4;52.3
78696;SHT31;68030;51.980;5.646;2023-08-08T07:53:32;20.4;51.6
78696;SHT31;68030;51.980;5.646;2023-08-08T07:56:01;20.5;51.3
78696;SHT31;68030;51.980;5.646;2023-08-08T07:58:31;20.5;51.0
78696;SHT31;68030;51.980;5.646;2023-08-08T08:01:00;20.5;51.9
78696;SHT31;68030;51.980;5.646;2023-08-08T08:03:29;20.6;51.8
78696;SHT31;68030;51.980;5.646;2023-08-08T08:05:59;20.6;51.2
78696;SHT31;68030;51.980;5.646;2023-08-08T08:08:28;20.7;50.9
78696;SHT31;68030;51.980;5.646;2023-08-08T08:10:57;20.8;51.4
78696;SHT31;68030;51.980;5.646;2023-08-08T08:13:25;20.8;51.5
78696;SHT31;68030;51.980;5.646;2023-08-08T08:15:54;20.9;50.7
78696;SHT31;68030;51.980;5.646;2023-08-08T08:18:22;20.9;50.0
78696;SHT31;68030;51.980;5.646;2023-08-08T08:20:51;21.0;49.2
78696;SHT31;68030;51.980;5.646;2023-08-08T08:23:19;21.0;49.3
78696;SHT31;68030;51.980;5.646;2023-08-08T08:25:47;21.0;48.8
78696;SHT31;68030;51.980;5.646;2023-08-08T08:28:17;21.0;48.9
78696;SHT31;68030;51.980;5.646;2023-08-08T08:30:46;21.1;49.2
78696;SHT31;68030;51.980;5.646;2023-08-08T08:33:14;21.1;49.8
78696;SHT31;68030;51.980;5.646;2023-08-08T08:35:43;21.2;50.0
78696;SHT31;68030;51.980;5.646;2023-08-08T08:38:12;21.2;49.3
78696;SHT31;68030;51.980;5.646;2023-08-08T08:40:41;21.2;48.2
78696;SHT31;68030;51.980;5.646;2023-08-08T08:43:13;21.2;48.1
78696;SHT31;68030;51.980;5.646;2023-08-08T08:45:47;21.2;48.0
78696;SHT31;68030;51.980;5.646;2023-08-08T08:48:18;21.2;47.1
78696;SHT31;68030;51.980;5.646;2023-08-08T08:50:49;21.2;47.5
78696;SHT31;68030;51.980;5.646;2023-08-08T08:53:18;21.2;47.0
78696;SHT31;68030;51.980;5.646;2023-08-08T08:55:47;21.2;46.5
78696;SHT31;68030;51.980;5.646;2023-08-08T08:58:20;21.2;47.2
78696;SHT31;68030;51.980;5.646;2023-08-08T09:00:51;21.3;48.2
78696;SHT31;68030;51.980;5.646;2023-08-08T09:03:22;21.3;48.4
78696;SHT31;68030;51.980;5.646;2023-08-08T09:05:54;21.4;47.5
78696;SHT31;68030;51.980;5.646;2023-08-08T09:08:23;21.4;46.6
78696;SHT31;68030;51.980;5.646;2023-08-08T09:10:52;21.5;46.3
78696;SHT31;68030;51.980;5.646;2023-08-08T09:13:22;21.5;46.0
78696;SHT31;68030;51.980;5.646;2023-08-08T09:15:53;21.5;45.8
78696;SHT31;68030;51.980;5.646;2023-08-08T09:18:24;21.6;45.2
78696;SHT31;68030;51.980;5.646;2023-08-08T09:20:54;21.6;45.8
78696;SHT31;68030;51.980;5.646;2023-08-08T09:23:23;21.7;43.9
78696;SHT31;68030;51.980;5.646;2023-08-08T09:25:53;21.7;44.8
78696;SHT31;68030;51.980;5.646;2023-08-08T09:28:21;21.7;44.5
78696;SHT31;68030;51.980;5.646;2023-08-08T09:30:50;21.7;44.7
78696;SHT31;68030;51.980;5.646;2023-08-08T09:33:20;21.7;44.7
78696;SHT31;68030;51.980;5.646;2023-08-08T09:35:52;21.8;44.9
78696;SHT31;68030;51.980;5.646;2023-08-08T09:38:22;21.8;44.3
78696;SHT31;68030;51.980;5.646;2023-08-08T09:40:51;21.8;43.7
78696;SHT31;68030;51.980;5.646;2023-08-08T09:43:20;21.9;45.1
78696;SHT31;68030;51.980;5.646;2023-08-08T09:45:49;21.9;43.7
78696;SHT31;68030;51.980;5.646;2023-08-08T09:48:21;22.0;43.6
78696;SHT31;68030;51.980;5.646;2023-08-08T09:50:50;22.1;44.3
78696;SHT31;68030;51.980;5.646;2023-08-08T09:53:23;22.1;44.5
78696;SHT31;68030;51.980;5.646;2023-08-08T09:55:53;22.2;44.0
78696;SHT31;68030;51.980;5.646;2023-08-08T09:58:23;22.2;43.9
78696;SHT31;68030;51.980;5.646;2023-08-08T10:00:54;22.3;43.3
78696;SHT31;68030;51.980;5.646;2023-08-08T10:03:23;22.3;41.4
78696;SHT31;68030;51.980;5.646;2023-08-08T10:05:53;22.3;42.2
78696;SHT31;68030;51.980;5.646;2023-08-08T10:08:22;22.3;42.6
78696;SHT31;68030;51.980;5.646;2023-08-08T10:10:51;22.3;42.9
78696;SHT31;68030;51.980;5.646;2023-08-08T10:13:22;22.3;44.2
78696;SHT31;68030;51.980;5.646;2023-08-08T10:15:52;22.3;43.5
78696;SHT31;68030;51.980;5.646;2023-08-08T10:18:23;22.4;43.4
78696;SHT31;68030;51.980;5.646;2023-08-08T10:20:54;22.4;43.1
78696;SHT31;68030;51.980;5.646;2023-08-08T10:23:23;22.4;43.8
78696;SHT31;68030;51.980;5.646;2023-08-08T10:25:52;22.4;42.4
78696;SHT31;68030;51.980;5.646;2023-08-08T10:28:21;22.4;43.8
78696;SHT31;68030;51.980;5.646;2023-08-08T10:30:53;22.4;43.5
78696;SHT31;68030;51.980;5.646;2023-08-08T10:33:23;22.4;44.5
78696;SHT31;68030;51.980;5.646;2023-08-08T10:35:54;22.4;43.5
78696;SHT31;68030;51.980;5.646;2023-08-08T10:38:23;22.5;43.0
78696;SHT31;68030;51.980;5.646;2023-08-08T10:40:56;22.5;43.6
78696;SHT31;68030;51.980;5.646;2023-08-08T10:43:28;22.5;43.4
78696;SHT31;68030;51.980;5.646;2023-08-08T10:46:02;22.6;44.2
78696;SHT31;68030;51.980;5.646;2023-08-08T10:48:31;22.6;43.3
78696;SHT31;68030;51.980;5.646;2023-08-08T10:51:00;22.6;44.0
78696;SHT31;68030;51.980;5.646;2023-08-08T10:53:29;22.6;43.5
78696;SHT31;68030;51.980;5.646;2023-08-08T10:56:00;22.6;43.1
78696;SHT31;68030;51.980;5.646;2023-08-08T10:58:40;22.5;43.4
78696;SHT31;68030;51.980;5.646;2023-08-08T11:01:12;22.5;44.3
78696;SHT31;68030;51.980;5.646;2023-08-08T11:03:44;22.6;43.6
78696;SHT31;68030;51.980;5.646;2023-08-08T11:06:17;22.7;43.4
78696;SHT31;68030;51.980;5.646;2023-08-08T11:08:46;22.8;43.5
78696;SHT31;68030;51.980;5.646;2023-08-08T11:11:16;22.8;42.7
78696;SHT31;68030;51.980;5.646;2023-08-08T11:13:45;22.9;42.6
78696;SHT31;68030;51.980;5.646;2023-08-08T11:16:14;22.9;42.5
78696;SHT31;68030;51.980;5.646;2023-08-08T11:18:45;22.9;40.7
78696;SHT31;68030;51.980;5.646;2023-08-08T11:21:13;22.9;41.7
78696;SHT31;68030;51.980;5.646;2023-08-08T11:23:47;22.9;42.3
78696;SHT31;68030;51.980;5.646;2023-08-08T11:26:19;22.9;42.4
78696;SHT31;68030;51.980;5.646;2023-08-08T11:28:51;22.9;43.7
78696;SHT31;68030;51.980;5.646;2023-08-08T11:31:21;22.9;43.7
78696;SHT31;68030;51.980;5.646;2023-08-08T11:33:50;22.9;43.4
78696;SHT31;68030;51.980;5.646;2023-08-08T11:36:20;22.9;43.0
78696;SHT31;68030;51.980;5.646;2023-08-08T11:38:49;22.9;44.5
78696;SHT31;68030;51.980;5.646;2023-08-08T11:41:22;22.9;43.8
78696;SHT31;68030;51.980;5.646;2023-08-08T11:43:53;22.9;42.7
78696;SHT31;68030;51.980;5.646;2023-08-08T11:46:26;23.0;43.5
78696;SHT31;68030;51.980;5.646;2023-08-08T11:48:54;23.0;42.9
78696;SHT31;68030;51.980;5.646;2023-08-08T11:51:23;23.0;43.4
78696;SHT31;68030;51.980;5.646;2023-08-08T11:53:52;23.0;42.7
78696;SHT31;68030;51.980;5.646;2023-08-08T11:56:22;23.1;43.6
78696;SHT31;68030;51.980;5.646;2023-08-08T11:58:51;23.1;43.8
78696;SHT31;68030;51.980;5.646;2023-08-08T12:01:22;23.1;41.7
78696;SHT31;68030;51.980;5.646;2023-08-08T12:03:53;23.1;40.3
78696;SHT31;68030;51.980;5.646;2023-08-08T12:06:22;23.1;42.5
78696;SHT31;68030;51.980;5.646;2023-08-08T12:09:00;23.1;42.9
78696;SHT31;68030;51.980;5.646;2023-08-08T12:11:30;23.1;42.3
78696;SHT31;68030;51.980;5.646;2023-08-08T12:14:02;23.1;42.5
78696;SHT31;68030;51.980;5.646;2023-08-08T12:16:31;23.1;42.2
78696;SHT31;68030;51.980;5.646;2023-08-08T12:19:00;23.1;41.8
78696;SHT31;68030;51.980;5.646;2023-08-08T12:21:29;23.1;41.5
78696;SHT31;68030;51.980;5.646;2023-08-08T12:23:59;23.1;42.5
78696;SHT31;68030;51.980;5.646;2023-08-08T12:26:29;23.1;42.2
78696;SHT31;68030;51.980;5.646;2023-08-08T12:28:58;23.1;42.6
78696;SHT31;68030;51.980;5.646;2023-08-08T12:31:26;23.1;43.1
78696;SHT31;68030;51.980;5.646;2023-08-08T12:33:55;23.1;42.8
78696;SHT31;68030;51.980;5.646;2023-08-08T12:36:25;23.1;42.8
78696;SHT31;68030;51.980;5.646;2023-08-08T12:38:54;23.2;42.8
78696;SHT31;68030;51.980;5.646;2023-08-08T12:41:22;23.2;43.0
78696;SHT31;68030;51.980;5.646;2023-08-08T12:43:52;23.2;42.3
78696;SHT31;68030;51.980;5.646;2023-08-08T12:46:21;23.2;42.0
78696;SHT31;68030;51.980;5.646;2023-08-08T12:48:50;23.2;43.5
78696;SHT31;68030;51.980;5.646;2023-08-08T12:51:19;23.3;43.2
78696;SHT31;68030;51.980;5.646;2023-08-08T12:53:48;23.3;43.0
78696;SHT31;68030;51.980;5.646;2023-08-08T12:56:17;23.3;42.6
78696;SHT31;68030;51.980;5.646;2023-08-08T12:58:46;23.3;41.7
78696;SHT31;68030;51.980;5.646;2023-08-08T13:01:15;23.3;42.4
78696;SHT31;68030;51.980;5.646;2023-08-08T13:03:43;23.3;42.2
78696;SHT31;68030;51.980;5.646;2023-08-08T13:06:12;23.3;43.5
78696;SHT31;68030;51.980;5.646;2023-08-08T13:08:40;23.2;43.2
78696;SHT31;68030;51.980;5.646;2023-08-08T13:11:09;23.2;42.8
78696;SHT31;68030;51.980;5.646;2023-08-08T13:13:37;23.2;42.7
78696;SHT31;68030;51.980;5.646;2023-08-08T13:16:06;23.1;42.9
78696;SHT31;68030;51.980;5.646;2023-08-08T13:18:34;23.1;42.8
78696;SHT31;68030;51.980;5.646;2023-08-08T13:21:03;23.1;42.9
78696;SHT31;68030;51.980;5.646;2023-08-08T13:23:32;23.1;43.1
78696;SHT31;68030;51.980;5.646;2023-08-08T13:26:01;23.1;43.5
78696;SHT31;68030;51.980;5.646;2023-08-08T13:28:30;23.1;43.1
78696;SHT31;68030;51.980;5.646;2023-08-08T13:31:00;23.1;43.5
78696;SHT31;68030;51.980;5.646;2023-08-08T13:33:30;23.1;42.8
78696;SHT31;68030;51.980;5.646;2023-08-08T13:35:58;23.1;43.9
78696;SHT31;68030;51.980;5.646;2023-08-08T13:38:27;23.0;44.0
78696;SHT31;68030;51.980;5.646;2023-08-08T13:40:56;23.1;43.7
78696;SHT31;68030;51.980;5.646;2023-08-08T13:43:26;23.1;43.6
78696;SHT31;68030;51.980;5.646;2023-08-08T13:45:56;23.1;43.4
78696;SHT31;68030;51.980;5.646;2023-08-08T13:48:26;23.0;43.7
78696;SHT31;68030;51.980;5.646;2023-08-08T13:50:57;23.0;43.8
78696;SHT31;68030;51.980;5.646;2023-08-08T13:53:28;23.0;44.3
78696;SHT31;68030;51.980;5.646;2023-08-08T13:55:57;23.0;44.4
78696;SHT31;68030;51.980;5.646;2023-08-08T13:58:25;22.9;44.8
78696;SHT31;68030;51.980;5.646;2023-08-08T14:00:55;22.9;45.2
78696;SHT31;68030;51.980;5.646;2023-08-08T14:03:24;22.9;45.8
78696;SHT31;68030;51.980;5.646;2023-08-08T14:05:53;22.9;45.6
78696;SHT31;68030;51.980;5.646;2023-08-08T14:08:22;22.9;43.6
78696;SHT31;68030;51.980;5.646;2023-08-08T14:10:51;22.9;44.4
78696;SHT31;68030;51.980;5.646;2023-08-08T14:13:19;22.9;44.3
78696;SHT31;68030;51.980;5.646;2023-08-08T14:15:50;22.9;44.5
78696;SHT31;68030;51.980;5.646;2023-08-08T14:18:18;22.9;44.6
78696;SHT31;68030;51.980;5.646;2023-08-08T14:20:47;22.8;44.8
78696;SHT31;68030;51.980;5.646;2023-08-08T14:23:16;22.8;44.6
78696;SHT31;68030;51.980;5.646;2023-08-08T14:25:45;22.8;45.3
78696;SHT31;68030;51.980;5.646;2023-08-08T14:28:13;22.9;44.4
78696;SHT31;68030;51.980;5.646;2023-08-08T14:30:41;22.9;44.3
78696;SHT31;68030;51.980;5.646;2023-08-08T14:33:13;22.9;43.2
78696;SHT31;68030;51.980;5.646;2023-08-08T14:35:41;22.9;43.2
78696;SHT31;68030;51.980;5.646;2023-08-08T14:38:12;23.0;43.6
78696;SHT31;68030;51.980;5.646;2023-08-08T14:40:41;23.0;43.5
78696;SHT31;68030;51.980;5.646;2023-08-08T14:43:09;23.0;44.0
78696;SHT31;68030;51.980;5.646;2023-08-08T14:45:38;23.0;43.8
78696;SHT31;68030;51.980;5.646;2023-08-08T14:48:07;23.1;43.8
78696;SHT31;68030;51.980;5.646;2023-08-08T14:50:37;23.1;43.2
78696;SHT31;68030;51.980;5.646;2023-08-08T14:53:06;23.1;43.5
78696;SHT31;68030;51.980;5.646;2023-08-08T14:55:35;23.1;42.9
78696;SHT31;68030;51.980;5.646;2023-08-08T14:58:04;23.1;43.3
78696;SHT31;68030;51.980;5.646;2023-08-08T15:00:32;23.2;42.9
78696;SHT31;68030;51.980;5.646;2023-08-08T15:03:01;23.2;43.0
78696;SHT31;68030;51.980;5.646;2023-08-08T15:05:29;23.2;43.4
78696;SHT31;68030;51.980;5.646;2023-08-08T15:07:58;23.2;42.4
78696;SHT31;68030;51.980;5.646;2023-08-08T15:10:29;23.2;42.3
78696;SHT31;68030;51.980;5.646;2023-08-08T15:12:57;23.2;42.8
78696;SHT31;68030;51.980;5.646;2023-08-08T15:15:26;23.2;43.1
78696;SHT31;68030;51.980;5.646;2023-08-08T15:17:56;23.2;42.6
78696;SHT31;68030;51.980;5.646;2023-08-08T15:20:24;23.2;41.9
78696;SHT31;68030;51.980;5.646;2023-08-08T15:22:53;23.2;41.7
78696;SHT31;68030;51.980;5.646;2023-08-08T15:25:21;23.2;42.2
78696;SHT31;68030;51.980;5.646;2023-08-08T15:27:50;23.3;43.1
78696;SHT31;68030;51.980;5.646;2023-08-08T15:30:18;23.3;43.4
78696;SHT31;68030;51.980;5.646;2023-08-08T15:32:48;23.3;43.2
78696;SHT31;68030;51.980;5.646;2023-08-08T15:35:17;23.3;43.8
78696;SHT31;68030;51.980;5.646;2023-08-08T15:37:45;23.3;42.6
78696;SHT31;68030;51.980;5.646;2023-08-08T15:40:13;23.3;42.5
78696;SHT31;68030;51.980;5.646;2023-08-08T15:42:42;23.3;42.2
78696;SHT31;68030;51.980;5.646;2023-08-08T15:45:12;23.2;42.2
78696;SHT31;68030;51.980;5.646;2023-08-08T15:47:41;23.2;43.3
78696;SHT31;68030;51.980;5.646;2023-08-08T15:50:10;23.2;44.6
78696;SHT31;68030;51.980;5.646;2023-08-08T15:52:39;23.1;43.6
78696;SHT31;68030;51.980;5.646;2023-08-08T15:55:09;23.1;44.1
78696;SHT31;68030;51.980;5.646;2023-08-08T15:57:41;23.2;43.3
78696;SHT31;68030;51.980;5.646;2023-08-08T16:00:11;23.2;43.8
78696;SHT31;68030;51.980;5.646;2023-08-08T16:02:42;23.3;44.5
78696;SHT31;68030;51.980;5.646;2023-08-08T16:05:11;23.4;44.5
78696;SHT31;68030;51.980;5.646;2023-08-08T16:07:40;23.5;44.8
78696;SHT31;68030;51.980;5.646;2023-08-08T16:10:09;23.8;44.1
78696;SHT31;68030;51.980;5.646;2023-08-08T16:12:39;24.0;43.9
78696;SHT31;68030;51.980;5.646;2023-08-08T16:15:09;24.1;42.5